sensor_id;sensor_type;location;lat;lon;timestamp;P1;P2;P0
59546;PMS5003;45368;55.002;-1.592;2023-06-22T00:01:26;13;12;
59546;PMS5003;45368;55.002;-1.592;2023-06-22T00:03:54;12;11;
59546;PMS5003;45368;55.002;-1.592;2023-06-22T00:06:21;13;12;
59546;PMS5003;45368;55.002;-1.592;2023-06-22T00:08:49;13;12;
59546;PMS5003;45368;55.002;-1.592;2023-06-22T00:11:16;13;12;
59546;PMS5003;45368;55.002;-1.592;2023-06-22T00:13:43;14;12;
59546;PMS5003;45368;55.002;-1.592;2023-06-22T00:16:11;12;11;
59546;PMS5003;45368;55.002;-1.592;2023-06-22T00:18:39;14;13;
59546;PMS5003;45368;55.002;-1.592;2023-06-22T00:21:07;15;14;
59546;PMS5003;45368;55.002;-1.592;2023-06-22T00:23:33;11;11;
59546;PMS5003;45368;55.002;-1.592;2023-06-22T00:26:00;14;13;
59546;PMS5003;45368;55.002;-1.592;2023-06-22T00:28:29;15;14;
59546;PMS5003;45368;55.002;-1.592;2023-06-22T00:30:56;13;13;
59546;PMS5003;45368;55.002;-1.592;2023-06-22T00:33:23;13;12;
59546;PMS5003;45368;55.002;-1.592;2023-06-22T00:35:50;14;14;
59546;PMS5003;45368;55.002;-1.592;2023-06-22T00:38:17;13;11;
59546;PMS5003;45368;55.002;-1.592;2023-06-22T00:40:45;17;14;
59546;PMS5003;45368;55.002;-1.592;2023-06-22T00:43:12;12;11;
59546;PMS5003;45368;55.002;-1.592;2023-06-22T00:45:39;14;14;
59546;PMS5003;45368;55.002;-1.592;2023-06-22T00:48:06;13;13;
59546;PMS5003;45368;55.002;-1.592;2023-06-22T00:50:35;13;13;
59546;PMS5003;45368;55.002;-1.592;2023-06-22T00:53:04;14;14;
59546;PMS5003;45368;55.002;-1.592;2023-06-22T00:55:32;13;13;
59546;PMS5003;45368;55.002;-1.592;2023-06-22T00:58:00;14;13;
59546;PMS5003;45368;55.002;-1.592;2023-06-22T01:00:27;14;13;
59546;PMS5003;45368;55.002;-1.592;2023-06-22T01:02:55;11;11;
59546;PMS5003;45368;55.002;-1.592;2023-06-22T01:05:22;13;13;
59546;PMS5003;45368;55.002;-1.592;2023-06-22T01:07:55;14;13;
59546;PMS5003;45368;55.002;-1.592;2023-06-22T01:10:33;11;11;
59546;PMS5003;45368;55.002;-1.592;2023-06-22T01:13:10;12;11;
59546;PMS5003;45368;55.002;-1.592;2023-06-22T01:15:45;13;13;
59546;PMS5003;45368;55.002;-1.592;2023-06-22T01:18:17;12;12;
59546;PMS5003;45368;55.002;-1.592;2023-06-22T01:20:47;13;13;
59546;PMS5003;45368;55.002;-1.592;2023-06-22T01:23:19;11;11;
59546;PMS5003;45368;55.002;-1.592;2023-06-22T01:25:56;13;12;
59546;PMS5003;45368;55.002;-1.592;2023-06-22T01:28:39;11;10;
59546;PMS5003;45368;55.002;-1.592;2023-06-22T01:31:10;11;11;
59546;PMS5003;45368;55.002;-1.592;2023-06-22T01:33:41;10;10;
59546;PMS5003;45368;55.002;-1.592;2023-06-22T01:36:11;12;12;
59546;PMS5003;45368;55.002;-1.592;2023-06-22T01:38:41;10;10;
59546;PMS5003;45368;55.002;-1.592;2023-06-22T01:41:11;11;10;
59546;PMS5003;45368;55.002;-1.592;2023-06-22T01:43:39;11;10;
59546;PMS5003;45368;55.002;-1.592;2023-06-22T01:46:07;12;11;
59546;PMS5003;45368;55.002;-1.592;2023-06-22T01:48:34;11;11;
59546;PMS5003;45368;55.002;-1.592;2023-06-22T01:51:02;9;8;
59546;PMS5003;45368;55.002;-1.592;2023-06-22T01:53:30;12;12;
59546;PMS5003;45368;55.002;-1.592;2023-06-22T01:55:57;11;11;
59546;PMS5003;45368;55.002;-1.592;2023-06-22T01:58:26;9;9;
59546;PMS5003;45368;55.002;-1.592;2023-06-22T02:00:56;13;11;
59546;PMS5003;45368;55.002;-1.592;2023-06-22T02:03:29;14;14;
59546;PMS5003;45368;55.002;-1.592;2023-06-22T02:06:02;18;17;
59546;PMS5003;45368;55.002;-1.592;2023-06-22T02:08:35;15;14;
59546;PMS5003;45368;55.002;-1.592;2023-06-22T02:11:06;13;12;
59546;PMS5003;45368;55.002;-1.592;2023-06-22T02:13:36;15;13;
59546;PMS5003;45368;55.002;-1.592;2023-06-22T02:16:04;14;14;
59546;PMS5003;45368;55.002;-1.592;2023-06-22T02:18:31;15;13;
59546;PMS5003;45368;55.002;-1.592;2023-06-22T02:20:58;12;12;
59546;PMS5003;45368;55.002;-1.592;2023-06-22T02:23:26;13;12;
59546;PMS5003;45368;55.002;-1.592;2023-06-22T02:25:53;13;13;
59546;PMS5003;45368;55.002;-1.592;2023-06-22T02:28:21;12;12;
59546;PMS5003;45368;55.002;-1.592;2023-06-22T02:30:48;11;11;
59546;PMS5003;45368;55.002;-1.592;2023-06-22T02:33:15;14;13;
59546;PMS5003;45368;55.002;-1.592;2023-06-22T02:35:43;16;14;
59546;PMS5003;45368;55.002;-1.592;2023-06-22T02:38:10;15;15;
59546;PMS5003;45368;55.002;-1.592;2023-06-22T02:40:37;16;14;
59546;PMS5003;45368;55.002;-1.592;2023-06-22T02:43:04;14;14;
59546;PMS5003;45368;55.002;-1.592;2023-06-22T02:45:32;17;16;
59546;PMS5003;45368;55.002;-1.592;2023-06-22T02:47:59;16;16;
59546;PMS5003;45368;55.002;-1.592;2023-06-22T02:50:27;14;14;
59546;PMS5003;45368;55.002;-1.592;2023-06-22T02:52:53;13;12;
59546;PMS5003;45368;55.002;-1.592;2023-06-22T02:55:21;14;14;
59546;PMS5003;45368;55.002;-1.592;2023-06-22T02:57:48;14;13;
59546;PMS5003;45368;55.002;-1.592;2023-06-22T03:00:15;13;13;
59546;PMS5003;45368;55.002;-1.592;2023-06-22T03:02:43;12;12;
59546;PMS5003;45368;55.002;-1.592;2023-06-22T03:05:10;13;12;
59546;PMS5003;45368;55.002;-1.592;2023-06-22T03:07:38;14;14;
59546;PMS5003;45368;55.002;-1.592;2023-06-22T03:10:06;13;12;
59546;PMS5003;45368;55.002;-1.592;2023-06-22T03:12:34;12;12;
59546;PMS5003;45368;55.002;-1.592;2023-06-22T03:15:01;11;10;
59546;PMS5003;45368;55.002;-1.592;2023-06-22T03:17:28;14;14;
59546;PMS5003;45368;55.002;-1.592;2023-06-22T03:19:56;12;11;
59546;PMS5003;45368;55.002;-1.592;2023-06-22T03:22:22;13;13;
59546;PMS5003;45368;55.002;-1.592;2023-06-22T03:24:49;12;12;
59546;PMS5003;45368;55.002;-1.592;2023-06-22T03:27:17;11;11;
59546;PMS5003;45368;55.002;-1.592;2023-06-22T03:29:45;12;11;
59546;PMS5003;45368;55.002;-1.592;2023-06-22T03:32:11;12;12;
59546;PMS5003;45368;55.002;-1.592;2023-06-22T03:34:39;13;12;
59546;PMS5003;45368;55.002;-1.592;2023-06-22T03:37:06;12;11;
59546;PMS5003;45368;55.002;-1.592;2023-06-22T03:39:33;11;11;
59546;PMS5003;45368;55.002;-1.592;2023-06-22T03:42:00;9;9;
59546;PMS5003;45368;55.002;-1.592;2023-06-22T03:44:28;11;11;
59546;PMS5003;45368;55.002;-1.592;2023-06-22T03:46:55;11;10;
59546;PMS5003;45368;55.002;-1.592;2023-06-22T03:49:22;10;9;
59546;PMS5003;45368;55.002;-1.592;2023-06-22T03:51:49;11;11;
59546;PMS5003;45368;55.002;-1.592;2023-06-22T03:54:17;10;10;
59546;PMS5003;45368;55.002;-1.592;2023-06-22T03:56:43;10;10;
59546;PMS5003;45368;55.002;-1.592;2023-06-22T03:59:10;11;10;
59546;PMS5003;45368;55.002;-1.592;2023-06-22T04:01:37;13;13;
59546;PMS5003;45368;55.002;-1.592;2023-06-22T04:04:05;10;9;
59546;PMS5003;45368;55.002;-1.592;2023-06-22T04:06:32;10;9;
59546;PMS5003;45368;55.002;-1.592;2023-06-22T04:08:59;10;9;
59546;PMS5003;45368;55.002;-1.592;2023-06-22T04:11:26;12;12;
59546;PMS5003;45368;55.002;-1.592;2023-06-22T04:13:53;12;11;
59546;PMS5003;45368;55.002;-1.592;2023-06-22T04:16:20;9;9;
59546;PMS5003;45368;55.002;-1.592;2023-06-22T04:18:47;13;12;
59546;PMS5003;45368;55.002;-1.592;2023-06-22T04:21:14;11;11;
59546;PMS5003;45368;55.002;-1.592;2023-06-22T04:23:41;12;11;
59546;PMS5003;45368;55.002;-1.592;2023-06-22T04:26:08;11;11;
59546;PMS5003;45368;55.002;-1.592;2023-06-22T04:28:35;10;9;
59546;PMS5003;45368;55.002;-1.592;2023-06-22T04:31:03;11;10;
59546;PMS5003;45368;55.002;-1.592;2023-06-22T04:33:31;12;12;
59546;PMS5003;45368;55.002;-1.592;2023-06-22T04:35:58;15;13;
59546;PMS5003;45368;55.002;-1.592;2023-06-22T04:38:26;10;10;
59546;PMS5003;45368;55.002;-1.592;2023-06-22T04:40:54;13;12;
59546;PMS5003;45368;55.002;-1.592;2023-06-22T04:43:21;11;11;
59546;PMS5003;45368;55.002;-1.592;2023-06-22T04:45:48;11;10;
59546;PMS5003;45368;55.002;-1.592;2023-06-22T04:48:15;10;10;
59546;PMS5003;45368;55.002;-1.592;2023-06-22T04:50:42;12;11;
59546;PMS5003;45368;55.002;-1.592;2023-06-22T04:53:09;12;12;
59546;PMS5003;45368;55.002;-1.592;2023-06-22T04:55:37;11;10;
59546;PMS5003;45368;55.002;-1.592;2023-06-22T04:58:07;12;12;
59546;PMS5003;45368;55.002;-1.592;2023-06-22T05:00:34;11;11;
59546;PMS5003;45368;55.002;-1.592;2023-06-22T05:03:01;12;12;
59546;PMS5003;45368;55.002;-1.592;2023-06-22T05:05:29;10;9;
59546;PMS5003;45368;55.002;-1.592;2023-06-22T05:07:57;13;10;
59546;PMS5003;45368;55.002;-1.592;2023-06-22T05:10:24;9;9;
59546;PMS5003;45368;55.002;-1.592;2023-06-22T05:12:52;11;11;
59546;PMS5003;45368;55.002;-1.592;2023-06-22T05:15:18;9;9;
59546;PMS5003;45368;55.002;-1.592;2023-06-22T05:17:45;9;8;
59546;PMS5003;45368;55.002;-1.592;2023-06-22T05:20:12;9;9;
59546;PMS5003;45368;55.002;-1.592;2023-06-22T05:22:40;10;9;
59546;PMS5003;45368;55.002;-1.592;2023-06-22T05:25:08;13;13;
59546;PMS5003;45368;55.002;-1.592;2023-06-22T05:27:36;11;11;
59546;PMS5003;45368;55.002;-1.592;2023-06-22T05:30:04;9;8;
59546;PMS5003;45368;55.002;-1.592;2023-06-22T05:32:34;9;9;
59546;PMS5003;45368;55.002;-1.592;2023-06-22T05:35:02;10;9;
59546;PMS5003;45368;55.002;-1.592;2023-06-22T05:37:29;9;9;
59546;PMS5003;45368;55.002;-1.592;2023-06-22T05:39:57;10;9;
59546;PMS5003;45368;55.002;-1.592;2023-06-22T05:42:24;9;9;
59546;PMS5003;45368;55.002;-1.592;2023-06-22T05:44:52;10;8;
59546;PMS5003;45368;55.002;-1.592;2023-06-22T05:47:20;10;10;
59546;PMS5003;45368;55.002;-1.592;2023-06-22T05:49:47;7;7;
59546;PMS5003;45368;55.002;-1.592;2023-06-22T05:52:14;8;8;
59546;PMS5003;45368;55.002;-1.592;2023-06-22T05:54:41;9;9;
59546;PMS5003;45368;55.002;-1.592;2023-06-22T05:57:08;7;7;
59546;PMS5003;45368;55.002;-1.592;2023-06-22T05:59:35;8;8;
59546;PMS5003;45368;55.002;-1.592;2023-06-22T06:02:03;11;8;
59546;PMS5003;45368;55.002;-1.592;2023-06-22T06:04:31;9;9;
59546;PMS5003;45368;55.002;-1.592;2023-06-22T06:06:59;9;8;
59546;PMS5003;45368;55.002;-1.592;2023-06-22T06:09:25;11;10;
59546;PMS5003;45368;55.002;-1.592;2023-06-22T06:11:53;7;6;
59546;PMS5003;45368;55.002;-1.592;2023-06-22T06:14:20;10;9;
59546;PMS5003;45368;55.002;-1.592;2023-06-22T06:16:48;7;7;
59546;PMS5003;45368;55.002;-1.592;2023-06-22T06:19:15;9;9;
59546;PMS5003;45368;55.002;-1.592;2023-06-22T06:21:42;9;9;
59546;PMS5003;45368;55.002;-1.592;2023-06-22T06:24:09;11;9;
59546;PMS5003;45368;55.002;-1.592;2023-06-22T06:26:36;10;10;
59546;PMS5003;45368;55.002;-1.592;2023-06-22T06:29:03;8;8;
59546;PMS5003;45368;55.002;-1.592;2023-06-22T06:31:30;9;7;
59546;PMS5003;45368;55.002;-1.592;2023-06-22T06:33:57;9;9;
59546;PMS5003;45368;55.002;-1.592;2023-06-22T06:36:25;8;8;
59546;PMS5003;45368;55.002;-1.592;2023-06-22T06:38:52;8;8;
59546;PMS5003;45368;55.002;-1.592;2023-06-22T06:41:19;9;8;
59546;PMS5003;45368;55.002;-1.592;2023-06-22T06:43:46;8;6;
59546;PMS5003;45368;55.002;-1.592;2023-06-22T06:46:14;7;7;
59546;PMS5003;45368;55.002;-1.592;2023-06-22T06:48:41;7;7;
59546;PMS5003;45368;55.002;-1.592;2023-06-22T06:51:08;6;6;
59546;PMS5003;45368;55.002;-1.592;2023-06-22T06:53:37;6;6;
59546;PMS5003;45368;55.002;-1.592;2023-06-22T06:56:05;7;7;
59546;PMS5003;45368;55.002;-1.592;2023-06-22T06:58:32;8;8;
59546;PMS5003;45368;55.002;-1.592;2023-06-22T07:00:59;8;7;
59546;PMS5003;45368;55.002;-1.592;2023-06-22T07:03:27;8;6;
59546;PMS5003;45368;55.002;-1.592;2023-06-22T07:05:54;8;8;
59546;PMS5003;45368;55.002;-1.592;2023-06-22T07:08:21;10;10;
59546;PMS5003;45368;55.002;-1.592;2023-06-22T07:10:48;5;5;
59546;PMS5003;45368;55.002;-1.592;2023-06-22T07:13:15;6;6;
59546;PMS5003;45368;55.002;-1.592;2023-06-22T07:15:42;11;10;
59546;PMS5003;45368;55.002;-1.592;2023-06-22T07:18:09;6;6;
59546;PMS5003;45368;55.002;-1.592;2023-06-22T07:20:37;7;6;
59546;PMS5003;45368;55.002;-1.592;2023-06-22T07:23:04;8;8;
59546;PMS5003;45368;55.002;-1.592;2023-06-22T07:25:31;6;5;
59546;PMS5003;45368;55.002;-1.592;2023-06-22T07:27:59;7;6;
59546;PMS5003;45368;55.002;-1.592;2023-06-22T07:30:28;7;7;
59546;PMS5003;45368;55.002;-1.592;2023-06-22T07:32:57;5;5;
59546;PMS5003;45368;55.002;-1.592;2023-06-22T07:35:24;7;7;
59546;PMS5003;45368;55.002;-1.592;2023-06-22T07:37:51;7;7;
59546;PMS5003;45368;55.002;-1.592;2023-06-22T07:40:18;7;7;
59546;PMS5003;45368;55.002;-1.592;2023-06-22T07:42:45;10;8;
59546;PMS5003;45368;55.002;-1.592;2023-06-22T07:45:12;8;8;
59546;PMS5003;45368;55.002;-1.592;2023-06-22T07:47:39;8;7;
59546;PMS5003;45368;55.002;-1.592;2023-06-22T07:50:07;7;7;
59546;PMS5003;45368;55.002;-1.592;2023-06-22T07:52:35;5;5;
59546;PMS5003;45368;55.002;-1.592;2023-06-22T07:55:02;8;8;
59546;PMS5003;45368;55.002;-1.592;2023-06-22T07:57:30;5;5;
59546;PMS5003;45368;55.002;-1.592;2023-06-22T07:59:57;6;6;
59546;PMS5003;45368;55.002;-1.592;2023-06-22T08:02:25;8;7;
59546;PMS5003;45368;55.002;-1.592;2023-06-22T08:04:52;6;6;
59546;PMS5003;45368;55.002;-1.592;2023-06-22T08:07:20;8;8;
59546;PMS5003;45368;55.002;-1.592;2023-06-22T08:09:48;6;6;
59546;PMS5003;45368;55.002;-1.592;2023-06-22T08:12:15;7;6;
59546;PMS5003;45368;55.002;-1.592;2023-06-22T08:14:43;5;5;
59546;PMS5003;45368;55.002;-1.592;2023-06-22T08:17:11;5;5;
59546;PMS5003;45368;55.002;-1.592;2023-06-22T08:19:39;9;8;
59546;PMS5003;45368;55.002;-1.592;2023-06-22T08:22:07;5;5;
59546;PMS5003;45368;55.002;-1.592;2023-06-22T08:24:34;7;7;
59546;PMS5003;45368;55.002;-1.592;2023-06-22T08:27:02;8;8;
59546;PMS5003;45368;55.002;-1.592;2023-06-22T08:29:33;7;7;
59546;PMS5003;45368;55.002;-1.592;2023-06-22T08:32:00;6;6;
59546;PMS5003;45368;55.002;-1.592;2023-06-22T08:34:29;7;6;
59546;PMS5003;45368;55.002;-1.592;2023-06-22T08:36:56;7;5;
59546;PMS5003;45368;55.002;-1.592;2023-06-22T08:39:23;7;7;
59546;PMS5003;45368;55.002;-1.592;2023-06-22T08:41:51;7;5;
59546;PMS5003;45368;55.002;-1.592;2023-06-22T08:44:18;8;7;
59546;PMS5003;45368;55.002;-1.592;2023-06-22T08:46:46;7;7;
59546;PMS5003;45368;55.002;-1.592;2023-06-22T08:49:13;7;6;
59546;PMS5003;45368;55.002;-1.592;2023-06-22T08:51:41;5;5;
59546;PMS5003;45368;55.002;-1.592;2023-06-22T08:54:08;7;5;
59546;PMS5003;45368;55.002;-1.592;2023-06-22T08:56:36;6;6;
59546;PMS5003;45368;55.002;-1.592;2023-06-22T08:59:03;6;6;
59546;PMS5003;45368;55.002;-1.592;2023-06-22T09:01:30;7;6;
59546;PMS5003;45368;55.002;-1.592;2023-06-22T09:03:58;6;6;
59546;PMS5003;45368;55.002;-1.592;2023-06-22T09:06:25;6;5;
59546;PMS5003;45368;55.002;-1.592;2023-06-22T09:08:52;6;6;
59546;PMS5003;45368;55.002;-1.592;2023-06-22T09:11:20;8;6;
59546;PMS5003;45368;55.002;-1.592;2023-06-22T09:13:48;7;7;
59546;PMS5003;45368;55.002;-1.592;2023-06-22T09:16:15;10;8;
59546;PMS5003;45368;55.002;-1.592;2023-06-22T09:18:45;6;6;
59546;PMS5003;45368;55.002;-1.592;2023-06-22T09:21:13;5;4;
59546;PMS5003;45368;55.002;-1.592;2023-06-22T09:23:41;6;6;
59546;PMS5003;45368;55.002;-1.592;2023-06-22T09:26:09;5;5;
59546;PMS5003;45368;55.002;-1.592;2023-06-22T09:28:36;5;5;
59546;PMS5003;45368;55.002;-1.592;2023-06-22T09:31:04;8;6;
59546;PMS5003;45368;55.002;-1.592;2023-06-22T09:33:31;9;8;
59546;PMS5003;45368;55.002;-1.592;2023-06-22T09:36:00;4;4;
59546;PMS5003;45368;55.002;-1.592;2023-06-22T09:38:27;9;7;
59546;PMS5003;45368;55.002;-1.592;2023-06-22T09:40:54;6;5;
59546;PMS5003;45368;55.002;-1.592;2023-06-22T09:43:22;6;6;
59546;PMS5003;45368;55.002;-1.592;2023-06-22T09:45:49;6;6;
59546;PMS5003;45368;55.002;-1.592;2023-06-22T09:48:15;5;5;
59546;PMS5003;45368;55.002;-1.592;2023-06-22T09:50:43;7;7;
59546;PMS5003;45368;55.002;-1.592;2023-06-22T09:53:11;8;7;
59546;PMS5003;45368;55.002;-1.592;2023-06-22T09:55:38;7;6;
59546;PMS5003;45368;55.002;-1.592;2023-06-22T09:58:06;6;6;
59546;PMS5003;45368;55.002;-1.592;2023-06-22T10:00:34;7;7;
59546;PMS5003;45368;55.002;-1.592;2023-06-22T10:03:02;7;7;
59546;PMS5003;45368;55.002;-1.592;2023-06-22T10:05:30;5;5;
59546;PMS5003;45368;55.002;-1.592;2023-06-22T10:07:57;10;9;
59546;PMS5003;45368;55.002;-1.592;2023-06-22T10:10:25;7;6;
59546;PMS5003;45368;55.002;-1.592;2023-06-22T10:12:54;5;5;
59546;PMS5003;45368;55.002;-1.592;2023-06-22T10:15:23;5;4;
59546;PMS5003;45368;55.002;-1.592;2023-06-22T10:17:51;7;7;
59546;PMS5003;45368;55.002;-1.592;2023-06-22T10:20:18;7;6;
59546;PMS5003;45368;55.002;-1.592;2023-06-22T10:22:46;5;5;
59546;PMS5003;45368;55.002;-1.592;2023-06-22T10:25:13;7;6;
59546;PMS5003;45368;55.002;-1.592;2023-06-22T10:27:40;6;5;
59546;PMS5003;45368;55.002;-1.592;2023-06-22T10:30:07;5;5;
59546;PMS5003;45368;55.002;-1.592;2023-06-22T10:32:37;3;3;
59546;PMS5003;45368;55.002;-1.592;2023-06-22T10:35:05;6;5;
59546;PMS5003;45368;55.002;-1.592;2023-06-22T10:37:33;4;3;
59546;PMS5003;45368;55.002;-1.592;2023-06-22T10:40:00;6;5;
59546;PMS5003;45368;55.002;-1.592;2023-06-22T10:42:28;7;6;
59546;PMS5003;45368;55.002;-1.592;2023-06-22T10:44:55;5;5;
59546;PMS5003;45368;55.002;-1.592;2023-06-22T10:47:23;5;5;
59546;PMS5003;45368;55.002;-1.592;2023-06-22T10:49:51;9;8;
59546;PMS5003;45368;55.002;-1.592;2023-06-22T10:52:18;7;7;
59546;PMS5003;45368;55.002;-1.592;2023-06-22T10:54:46;5;5;
59546;PMS5003;45368;55.002;-1.592;2023-06-22T10:57:14;5;5;
59546;PMS5003;45368;55.002;-1.592;2023-06-22T10:59:41;5;5;
59546;PMS5003;45368;55.002;-1.592;2023-06-22T11:02:09;5;5;
59546;PMS5003;45368;55.002;-1.592;2023-06-22T11:04:37;2;2;
59546;PMS5003;45368;55.002;-1.592;2023-06-22T11:07:05;2;2;
59546;PMS5003;45368;55.002;-1.592;2023-06-22T11:09:32;4;4;
59546;PMS5003;45368;55.002;-1.592;2023-06-22T11:12:00;5;4;
59546;PMS5003;45368;55.002;-1.592;2023-06-22T11:14:27;5;5;
59546;PMS5003;45368;55.002;-1.592;2023-06-22T11:16:55;5;3;
59546;PMS5003;45368;55.002;-1.592;2023-06-22T11:19:23;4;4;
59546;PMS5003;45368;55.002;-1.592;2023-06-22T11:21:50;6;4;
59546;PMS5003;45368;55.002;-1.592;2023-06-22T11:24:18;3;3;
59546;PMS5003;45368;55.002;-1.592;2023-06-22T11:26:45;4;4;
59546;PMS5003;45368;55.002;-1.592;2023-06-22T11:29:13;4;3;
59546;PMS5003;45368;55.002;-1.592;2023-06-22T11:31:41;5;4;
59546;PMS5003;45368;55.002;-1.592;2023-06-22T11:34:08;4;4;
59546;PMS5003;45368;55.002;-1.592;2023-06-22T11:36:36;4;4;
59546;PMS5003;45368;55.002;-1.592;2023-06-22T11:39:04;7;5;
59546;PMS5003;45368;55.002;-1.592;2023-06-22T11:41:31;4;4;
59546;PMS5003;45368;55.002;-1.592;2023-06-22T11:43:59;4;3;
59546;PMS5003;45368;55.002;-1.592;2023-06-22T11:46:26;4;4;
59546;PMS5003;45368;55.002;-1.592;2023-06-22T11:48:54;3;3;
59546;PMS5003;45368;55.002;-1.592;2023-06-22T11:51:21;4;3;
59546;PMS5003;45368;55.002;-1.592;2023-06-22T11:53:49;6;6;
59546;PMS5003;45368;55.002;-1.592;2023-06-22T11:56:17;4;4;
59546;PMS5003;45368;55.002;-1.592;2023-06-22T11:58:44;5;5;
59546;PMS5003;45368;55.002;-1.592;2023-06-22T12:01:12;6;4;
59546;PMS5003;45368;55.002;-1.592;2023-06-22T12:03:39;6;5;
59546;PMS5003;45368;55.002;-1.592;2023-06-22T12:06:08;5;5;
59546;PMS5003;45368;55.002;-1.592;2023-06-22T12:08:35;5;5;
59546;PMS5003;45368;55.002;-1.592;2023-06-22T12:11:03;5;5;
59546;PMS5003;45368;55.002;-1.592;2023-06-22T12:13:31;5;5;
59546;PMS5003;45368;55.002;-1.592;2023-06-22T12:15:57;4;4;
59546;PMS5003;45368;55.002;-1.592;2023-06-22T12:18:25;6;5;
59546;PMS5003;45368;55.002;-1.592;2023-06-22T12:20:53;5;5;
59546;PMS5003;45368;55.002;-1.592;2023-06-22T12:23:20;6;6;
59546;PMS5003;45368;55.002;-1.592;2023-06-22T12:25:48;5;4;
59546;PMS5003;45368;55.002;-1.592;2023-06-22T12:28:16;7;6;
59546;PMS5003;45368;55.002;-1.592;2023-06-22T12:30:43;6;5;
59546;PMS5003;45368;55.002;-1.592;2023-06-22T12:33:11;8;7;
59546;PMS5003;45368;55.002;-1.592;2023-06-22T12:35:39;6;5;
59546;PMS5003;45368;55.002;-1.592;2023-06-22T12:38:06;6;5;
59546;PMS5003;45368;55.002;-1.592;2023-06-22T12:40:34;6;6;
59546;PMS5003;45368;55.002;-1.592;2023-06-22T12:43:01;6;5;
59546;PMS5003;45368;55.002;-1.592;2023-06-22T12:45:28;4;4;
59546;PMS5003;45368;55.002;-1.592;2023-06-22T12:47:56;6;6;
59546;PMS5003;45368;55.002;-1.592;2023-06-22T12:50:22;5;5;
59546;PMS5003;45368;55.002;-1.592;2023-06-22T12:52:50;6;5;
59546;PMS5003;45368;55.002;-1.592;2023-06-22T12:55:18;5;5;
59546;PMS5003;45368;55.002;-1.592;2023-06-22T12:57:46;6;6;
59546;PMS5003;45368;55.002;-1.592;2023-06-22T13:00:13;4;4;
59546;PMS5003;45368;55.002;-1.592;2023-06-22T13:02:42;7;6;
59546;PMS5003;45368;55.002;-1.592;2023-06-22T13:05:08;3;3;
59546;PMS5003;45368;55.002;-1.592;2023-06-22T13:07:36;4;4;
59546;PMS5003;45368;55.002;-1.592;2023-06-22T13:10:04;3;3;
59546;PMS5003;45368;55.002;-1.592;2023-06-22T13:12:32;4;4;
59546;PMS5003;45368;55.002;-1.592;2023-06-22T13:14:59;4;4;
59546;PMS5003;45368;55.002;-1.592;2023-06-22T13:17:27;6;6;
59546;PMS5003;45368;55.002;-1.592;2023-06-22T13:19:54;4;4;
59546;PMS5003;45368;55.002;-1.592;2023-06-22T13:22:26;5;5;
59546;PMS5003;45368;55.002;-1.592;2023-06-22T13:24:55;5;4;
59546;PMS5003;45368;55.002;-1.592;2023-06-22T13:27:22;3;3;
59546;PMS5003;45368;55.002;-1.592;2023-06-22T13:29:50;5;5;
59546;PMS5003;45368;55.002;-1.592;2023-06-22T13:32:18;9;7;
59546;PMS5003;45368;55.002;-1.592;2023-06-22T13:34:45;3;3;
59546;PMS5003;45368;55.002;-1.592;2023-06-22T13:37:13;8;6;
59546;PMS5003;45368;55.002;-1.592;2023-06-22T13:39:41;5;4;
59546;PMS5003;45368;55.002;-1.592;2023-06-22T13:42:08;5;4;
59546;PMS5003;45368;55.002;-1.592;2023-06-22T13:44:36;6;6;
59546;PMS5003;45368;55.002;-1.592;2023-06-22T13:47:04;6;5;
59546;PMS5003;45368;55.002;-1.592;2023-06-22T13:49:32;6;6;
59546;PMS5003;45368;55.002;-1.592;2023-06-22T13:52:00;6;6;
59546;PMS5003;45368;55.002;-1.592;2023-06-22T13:54:27;6;5;
59546;PMS5003;45368;55.002;-1.592;2023-06-22T13:56:55;6;5;
59546;PMS5003;45368;55.002;-1.592;2023-06-22T13:59:23;5;5;
59546;PMS5003;45368;55.002;-1.592;2023-06-22T14:01:50;5;5;
59546;PMS5003;45368;55.002;-1.592;2023-06-22T14:04:18;4;4;
59546;PMS5003;45368;55.002;-1.592;2023-06-22T14:06:46;5;4;
59546;PMS5003;45368;55.002;-1.592;2023-06-22T14:09:13;4;4;
59546;PMS5003;45368;55.002;-1.592;2023-06-22T14:11:41;5;4;
59546;PMS5003;45368;55.002;-1.592;2023-06-22T14:14:08;6;5;
59546;PMS5003;45368;55.002;-1.592;2023-06-22T14:16:36;6;6;
59546;PMS5003;45368;55.002;-1.592;2023-06-22T14:19:04;4;4;
59546;PMS5003;45368;55.002;-1.592;2023-06-22T14:21:31;9;5;
59546;PMS5003;45368;55.002;-1.592;2023-06-22T14:23:59;6;6;
59546;PMS5003;45368;55.002;-1.592;2023-06-22T14:26:27;5;4;
59546;PMS5003;45368;55.002;-1.592;2023-06-22T14:28:54;6;5;
59546;PMS5003;45368;55.002;-1.592;2023-06-22T14:31:22;6;6;
59546;PMS5003;45368;55.002;-1.592;2023-06-22T14:33:50;5;5;
59546;PMS5003;45368;55.002;-1.592;2023-06-22T14:36:17;6;6;
59546;PMS5003;45368;55.002;-1.592;2023-06-22T14:38:45;3;3;
59546;PMS5003;45368;55.002;-1.592;2023-06-22T14:41:12;5;4;
59546;PMS5003;45368;55.002;-1.592;2023-06-22T14:43:43;5;5;
59546;PMS5003;45368;55.002;-1.592;2023-06-22T14:46:10;6;5;
59546;PMS5003;45368;55.002;-1.592;2023-06-22T14:48:38;6;6;
59546;PMS5003;45368;55.002;-1.592;2023-06-22T14:51:05;6;5;
59546;PMS5003;45368;55.002;-1.592;2023-06-22T14:53:33;4;4;
59546;PMS5003;45368;55.002;-1.592;2023-06-22T14:55:59;5;5;
59546;PMS5003;45368;55.002;-1.592;2023-06-22T14:58:27;7;5;
59546;PMS5003;45368;55.002;-1.592;2023-06-22T15:00:55;5;5;
59546;PMS5003;45368;55.002;-1.592;2023-06-22T15:03:22;5;5;
59546;PMS5003;45368;55.002;-1.592;2023-06-22T15:05:50;6;6;
59546;PMS5003;45368;55.002;-1.592;2023-06-22T15:08:17;5;5;
59546;PMS5003;45368;55.002;-1.592;2023-06-22T15:10:44;5;5;
59546;PMS5003;45368;55.002;-1.592;2023-06-22T15:13:12;8;7;
59546;PMS5003;45368;55.002;-1.592;2023-06-22T15:15:39;4;4;
59546;PMS5003;45368;55.002;-1.592;2023-06-22T15:18:07;4;3;
59546;PMS5003;45368;55.002;-1.592;2023-06-22T15:20:35;4;4;
59546;PMS5003;45368;55.002;-1.592;2023-06-22T15:23:02;6;6;
59546;PMS5003;45368;55.002;-1.592;2023-06-22T15:25:30;4;4;
59546;PMS5003;45368;55.002;-1.592;2023-06-22T15:27:58;5;4;
59546;PMS5003;45368;55.002;-1.592;2023-06-22T15:30:25;3;3;
59546;PMS5003;45368;55.002;-1.592;2023-06-22T15:32:53;6;6;
59546;PMS5003;45368;55.002;-1.592;2023-06-22T15:35:22;8;8;
59546;PMS5003;45368;55.002;-1.592;2023-06-22T15:37:49;5;4;
59546;PMS5003;45368;55.002;-1.592;2023-06-22T15:40:17;4;3;
59546;PMS5003;45368;55.002;-1.592;2023-06-22T15:42:45;6;6;
59546;PMS5003;45368;55.002;-1.592;2023-06-22T15:45:12;6;5;
59546;PMS5003;45368;55.002;-1.592;2023-06-22T15:47:40;4;4;
59546;PMS5003;45368;55.002;-1.592;2023-06-22T15:50:08;6;5;
59546;PMS5003;45368;55.002;-1.592;2023-06-22T15:52:35;7;6;
59546;PMS5003;45368;55.002;-1.592;2023-06-22T15:55:03;8;6;
59546;PMS5003;45368;55.002;-1.592;2023-06-22T15:57:31;5;5;
59546;PMS5003;45368;55.002;-1.592;2023-06-22T15:59:58;6;6;
59546;PMS5003;45368;55.002;-1.592;2023-06-22T16:02:26;5;5;
59546;PMS5003;45368;55.002;-1.592;2023-06-22T16:04:53;7;6;
59546;PMS5003;45368;55.002;-1.592;2023-06-22T16:07:21;5;5;
59546;PMS5003;45368;55.002;-1.592;2023-06-22T16:09:49;5;5;
59546;PMS5003;45368;55.002;-1.592;2023-06-22T16:12:16;6;4;
59546;PMS5003;45368;55.002;-1.592;2023-06-22T16:14:44;5;5;
59546;PMS5003;45368;55.002;-1.592;2023-06-22T16:17:12;4;4;
59546;PMS5003;45368;55.002;-1.592;2023-06-22T16:19:40;5;5;
59546;PMS5003;45368;55.002;-1.592;2023-06-22T16:22:07;6;5;
59546;PMS5003;45368;55.002;-1.592;2023-06-22T16:24:34;5;5;
59546;PMS5003;45368;55.002;-1.592;2023-06-22T16:27:01;7;6;